Whiteoak, Missouri
Current Conditions -  °F | °C
As of 2:02 AM on Thursday 27 Nov 2014 (Local Time) from KHKA Reporting Station
Overcast Overcast  
Wind Chill: 38°   Ceiling: 3200
Heat Index: 45°   Visibility: 10mi
Dew Point: 34°   Wind: 16mph
Humidity: 65%   Direction: 320°NW
Pressure: 30.26"   Gusts: NA
Location:  36.13°N, 90.16°W
Report Text: KHKA 270802Z AUTO 32014KT 10SM OVC032 07/01 A3026 RMK AO2 T00720011
Loading
Personal Weather Stations






























Interactive Weather Map New forecast layout! Learn more

10-Day Weather Forecast

Advertisements
Track Severe Weather on mobile